Time;durP1;ratioP1;P1;durP2;ratioP2;P2;SDS_P1;SDS_P2;PMS_P1;PMS_P2;Temp;Humidity;BMP_temperature;BMP_pressure;BME280_temperature;BME280_humidity;BME280_pressure;Samples;Min_cycle;Max_cycle;Signal;HPM_P1;HPM_P2
2022/12/03 00:00:07;;;;;;;24.50;15.93;;;;;;;;;;5002459;28;99667;-73
2022/12/03 00:02:38;;;;;;;28.92;17.63;;;;;;;;;;4984856;28;100005;-73
2022/12/03 00:05:05;;;;;;;30.58;19.67;;;;;;;;;;4986801;28;98746;-73
2022/12/03 00:07:31;;;;;;;28.42;18.70;;;;;;;;;;4992459;28;99961;-73
2022/12/03 00:09:57;;;;;;;35.22;20.30;;;;;;;;;;4988679;28;98360;-73
2022/12/03 00:12:24;;;;;;;35.88;19.75;;;;;;;;;;4987994;28;98473;-73
2022/12/03 00:14:50;;;;;;;29.90;18.65;;;;;;;;;;4989104;28;99886;-73
2022/12/03 00:17:16;;;;;;;32.58;19.83;;;;;;;;;;4989297;28;98352;-73
2022/12/03 00:19:43;;;;;;;36.55;20.40;;;;;;;;;;4989080;28;98577;-73
2022/12/03 00:22:10;;;;;;;27.65;18.33;;;;;;;;;;4995427;28;99103;-72
2022/12/03 00:24:38;;;;;;;32.42;19.60;;;;;;;;;;5008080;28;98919;-72
2022/12/03 00:27:04;;;;;;;33.53;20.73;;;;;;;;;;5009040;28;99346;-72
2022/12/03 00:29:31;;;;;;;30.35;19.70;;;;;;;;;;5012037;28;99984;-72
2022/12/03 00:31:57;;;;;;;31.27;18.25;;;;;;;;;;5008267;28;99566;-71
2022/12/03 00:34:23;;;;;;;31.08;19.13;;;;;;;;;;5007929;28;99902;-72
2022/12/03 00:36:50;;;;;;;31.55;19.02;;;;;;;;;;5008474;28;98297;-72
2022/12/03 00:39:16;;;;;;;31.67;18.55;;;;;;;;;;5008546;28;99360;-72
2022/12/03 00:41:42;;;;;;;29.00;18.90;;;;;;;;;;5007920;28;99016;-72
2022/12/03 00:44:10;;;;;;;25.75;14.13;;;;;;;;;;5008196;28;98452;-71
2022/12/03 00:46:37;;;;;;;24.65;14.35;;;;;;;;;;5007678;28;98685;-73
2022/12/03 00:49:04;;;;;;;32.15;20.00;;;;;;;;;;5008183;28;102291;-73
2022/12/03 00:51:31;;;;;;;27.27;16.92;;;;;;;;;;5010808;28;98336;-73
2022/12/03 00:53:57;;;;;;;37.08;21.33;;;;;;;;;;4992768;28;99700;-73
2022/12/03 00:56:23;;;;;;;35.10;19.92;;;;;;;;;;4988258;28;98286;-73
2022/12/03 00:58:50;;;;;;;32.22;19.75;;;;;;;;;;4987794;28;98926;-73
2022/12/03 01:01:16;;;;;;;28.60;19.17;;;;;;;;;;4987177;28;99170;-72
2022/12/03 01:03:43;;;;;;;25.60;17.00;;;;;;;;;;4988556;28;99540;-73
2022/12/03 01:06:09;;;;;;;24.83;15.55;;;;;;;;;;4987922;28;100058;-73
2022/12/03 01:08:35;;;;;;;31.52;18.52;;;;;;;;;;4994998;28;99672;-72
2022/12/03 01:11:02;;;;;;;35.35;19.30;;;;;;;;;;5008439;28;98295;-72
2022/12/03 01:13:28;;;;;;;31.75;18.88;;;;;;;;;;5010284;28;98687;-73
2022/12/03 01:15:54;;;;;;;25.90;16.70;;;;;;;;;;5007543;28;98292;-73
2022/12/03 01:18:21;;;;;;;32.20;18.42;;;;;;;;;;5008274;28;98523;-72
2022/12/03 01:20:47;;;;;;;33.20;19.52;;;;;;;;;;5007270;28;99907;-71
2022/12/03 01:23:13;;;;;;;27.45;18.00;;;;;;;;;;4995561;28;98276;-71
2022/12/03 01:25:40;;;;;;;31.30;18.77;;;;;;;;;;4999477;28;99668;-71
2022/12/03 01:28:06;;;;;;;27.23;17.35;;;;;;;;;;5007348;28;99875;-72
2022/12/03 01:32:15;;;;;;;30.90;18.65;;;;;;;;;;5007888;28;98286;-72
2022/12/03 01:33:19;;;;;;;34.25;20.23;;;;;;;;;;5007849;28;99384;-71
2022/12/03 01:35:45;;;;;;;33.80;19.65;;;;;;;;;;5010210;28;100124;-72
2022/12/03 01:38:11;;;;;;;26.95;16.98;;;;;;;;;;5007930;28;99464;-72
2022/12/03 01:40:38;;;;;;;27.38;16.85;;;;;;;;;;5007220;28;100084;-71
2022/12/03 01:43:04;;;;;;;31.80;16.75;;;;;;;;;;4995055;28;98388;-72
2022/12/03 01:45:30;;;;;;;27.63;18.50;;;;;;;;;;4987820;28;99591;-72
2022/12/03 01:47:57;;;;;;;35.17;18.02;;;;;;;;;;4986450;28;99254;-72
2022/12/03 01:50:31;;;;;;;28.75;15.27;;;;;;;;;;4987019;28;98269;-72
2022/12/03 01:52:59;;;;;;;32.60;18.67;;;;;;;;;;4988188;28;98293;-72
2022/12/03 01:55:25;;;;;;;26.92;16.38;;;;;;;;;;4989901;28;100209;-72
2022/12/03 01:57:54;;;;;;;34.40;20.90;;;;;;;;;;4987265;28;98356;-72
2022/12/03 02:00:21;;;;;;;32.88;18.73;;;;;;;;;;5001043;28;100128;-72
2022/12/03 02:02:49;;;;;;;31.83;18.42;;;;;;;;;;5006289;28;98923;-71
2022/12/03 02:05:17;;;;;;;25.02;16.92;;;;;;;;;;5007052;28;98907;-72
2022/12/03 02:07:43;;;;;;;29.27;19.48;;;;;;;;;;5007469;28;100207;-72
2022/12/03 02:10:11;;;;;;;28.55;17.75;;;;;;;;;;5007133;28;98874;-71
2022/12/03 02:12:40;;;;;;;33.33;20.75;;;;;;;;;;5007342;28;99721;-72
2022/12/03 02:15:07;;;;;;;31.42;17.80;;;;;;;;;;5006519;28;100195;-72
2022/12/03 02:17:34;;;;;;;33.00;19.38;;;;;;;;;;4994135;28;98356;-72
2022/12/03 02:20:01;;;;;;;31.73;19.15;;;;;;;;;;4987292;28;100039;-72
2022/12/03 02:22:31;;;;;;;28.02;17.30;;;;;;;;;;4996852;28;99351;-72
2022/12/03 02:25:15;;;;;;;35.38;20.55;;;;;;;;;;4994093;28;99133;-72
2022/12/03 02:27:42;;;;;;;31.52;19.17;;;;;;;;;;5005669;28;99287;-73
2022/12/03 02:30:09;;;;;;;31.10;18.23;;;;;;;;;;5006217;28;98402;-73
2022/12/03 02:32:36;;;;;;;27.65;18.27;;;;;;;;;;5006163;28;98680;-73
2022/12/03 02:35:03;;;;;;;34.08;20.13;;;;;;;;;;5006442;28;99963;-73
2022/12/03 02:37:31;;;;;;;28.13;14.45;;;;;;;;;;5006134;28;98319;-73
2022/12/03 02:40:01;;;;;;;24.92;15.45;;;;;;;;;;5009364;28;99416;-71
2022/12/03 02:42:34;;;;;;;35.03;19.63;;;;;;;;;;5005498;28;98279;-72
2022/12/03 02:45:06;;;;;;;27.48;19.17;;;;;;;;;;5005444;28;98760;-71
2022/12/03 02:47:35;;;;;;;32.28;19.55;;;;;;;;;;5004917;28;99641;-73
2022/12/03 02:50:02;;;;;;;22.15;13.20;;;;;;;;;;5003260;28;98386;-72
2022/12/03 02:52:28;;;;;;;31.00;19.92;;;;;;;;;;4985894;28;99890;-73
2022/12/03 02:54:55;;;;;;;24.83;16.40;;;;;;;;;;4986605;28;99118;-72
2022/12/03 02:57:21;;;;;;;30.52;18.42;;;;;;;;;;4986822;28;98301;-72
2022/12/03 02:59:48;;;;;;;28.23;18.65;;;;;;;;;;4985203;28;99429;-72
2022/12/03 03:02:14;;;;;;;31.90;19.30;;;;;;;;;;4989286;28;99368;-72
2022/12/03 03:04:41;;;;;;;34.15;20.00;;;;;;;;;;4985810;28;99960;-72
2022/12/03 03:07:07;;;;;;;29.10;17.35;;;;;;;;;;4986306;28;99315;-72
2022/12/03 03:09:34;;;;;;;31.45;19.73;;;;;;;;;;4985906;28;98284;-72
2022/12/03 03:12:00;;;;;;;31.75;20.83;;;;;;;;;;4986728;28;99550;-72
2022/12/03 03:14:27;;;;;;;25.95;15.48;;;;;;;;;;4985488;28;100344;-72
2022/12/03 03:16:54;;;;;;;25.35;15.90;;;;;;;;;;4992550;28;98692;-73
2022/12/03 03:19:23;;;;;;;25.95;17.08;;;;;;;;;;5005163;28;98603;-72
2022/12/03 03:21:49;;;;;;;28.13;16.98;;;;;;;;;;5006235;28;99136;-72
2022/12/03 03:24:16;;;;;;;29.90;20.60;;;;;;;;;;5004788;28;98799;-72
2022/12/03 03:26:42;;;;;;;32.05;18.80;;;;;;;;;;5003746;28;99948;-72
2022/12/03 03:29:09;;;;;;;35.17;20.13;;;;;;;;;;5005805;28;98004;-72
2022/12/03 03:31:36;;;;;;;27.30;16.85;;;;;;;;;;5006132;28;100435;-72
2022/12/03 03:34:02;;;;;;;32.35;18.25;;;;;;;;;;5004451;28;99503;-72
2022/12/03 03:36:29;;;;;;;31.70;20.05;;;;;;;;;;5006000;28;98349;-72
2022/12/03 03:38:55;;;;;;;31.60;20.08;;;;;;;;;;5005864;28;98626;-72
2022/12/03 03:41:24;;;;;;;31.52;20.35;;;;;;;;;;5008070;28;99899;-72
2022/12/03 03:43:50;;;;;;;33.53;20.02;;;;;;;;;;5009667;28;98345;-72
2022/12/03 03:46:17;;;;;;;31.88;18.70;;;;;;;;;;5011288;28;99419;-72
2022/12/03 03:48:44;;;;;;;37.08;20.65;;;;;;;;;;4987583;28;98660;-72
2022/12/03 03:51:11;;;;;;;30.63;19.17;;;;;;;;;;4989987;28;98550;-72
2022/12/03 03:53:39;;;;;;;24.85;16.27;;;;;;;;;;4988024;28;99110;-72
2022/12/03 03:56:05;;;;;;;23.80;14.30;;;;;;;;;;4988765;28;98395;-72
2022/12/03 03:58:32;;;;;;;34.42;18.92;;;;;;;;;;4995953;28;99773;-72
2022/12/03 04:00:59;;;;;;;31.77;21.27;;;;;;;;;;5009129;28;100054;-72
2022/12/03 04:03:26;;;;;;;31.88;19.20;;;;;;;;;;5007303;28;98331;-72
2022/12/03 04:05:53;;;;;;;32.30;19.50;;;;;;;;;;5011888;28;98693;-72
2022/12/03 04:08:19;;;;;;;28.75;17.45;;;;;;;;;;5009351;28;98345;-72
2022/12/03 04:13:30;;;;;;;31.33;18.42;;;;;;;;;;5009008;28;99987;-73
2022/12/03 04:15:56;;;;;;;28.15;15.02;;;;;;;;;;5005583;28;98807;-72
2022/12/03 04:24:00;;;;;;;28.00;17.10;;;;;;;;;;4988142;28;98305;-72
2022/12/03 04:29:16;;;;;;;20.85;14.73;;;;;;;;;;5011728;28;98950;-72
2022/12/03 04:37:14;;;;;;;34.42;20.77;;;;;;;;;;4987953;28;98416;-72
2022/12/03 04:39:41;;;;;;;34.67;21.65;;;;;;;;;;4988415;28;98482;-73
2022/12/03 04:42:07;;;;;;;30.90;18.65;;;;;;;;;;4987847;28;99010;-73
2022/12/03 04:44:36;;;;;;;34.63;20.23;;;;;;;;;;4987505;28;98202;-72
2022/12/03 04:47:13;;;;;;;29.45;18.73;;;;;;;;;;4997003;28;99678;-72
2022/12/03 04:49:43;;;;;;;35.10;19.83;;;;;;;;;;4999035;28;99025;-72
2022/12/03 04:52:11;;;;;;;30.35;18.90;;;;;;;;;;4990318;28;98449;-72
2022/12/03 04:54:37;;;;;;;31.02;20.48;;;;;;;;;;4988457;28;100062;-72
2022/12/03 04:57:04;;;;;;;33.25;21.25;;;;;;;;;;4988694;28;98739;-72
2022/12/03 04:59:31;;;;;;;32.10;20.77;;;;;;;;;;4987381;28;98735;-72
2022/12/03 05:01:57;;;;;;;32.95;21.00;;;;;;;;;;4993646;28;99291;-72
2022/12/03 05:04:24;;;;;;;34.78;20.48;;;;;;;;;;4997013;28;98323;-72
2022/12/03 05:06:50;;;;;;;31.45;20.05;;;;;;;;;;5005654;28;99569;-72
2022/12/03 05:09:17;;;;;;;27.75;16.83;;;;;;;;;;5007343;28;100431;-72
2022/12/03 05:11:43;;;;;;;29.60;19.90;;;;;;;;;;5005920;28;99419;-73
2022/12/03 05:14:10;;;;;;;33.13;21.77;;;;;;;;;;5009379;28;99638;-72
2022/12/03 05:16:36;;;;;;;41.50;23.27;;;;;;;;;;5008155;28;98399;-71
2022/12/03 05:19:04;;;;;;;26.95;16.92;;;;;;;;;;5004487;28;98843;-71
2022/12/03 05:21:30;;;;;;;27.95;16.05;;;;;;;;;;5005981;28;100477;-72
2022/12/03 05:23:56;;;;;;;38.55;22.38;;;;;;;;;;5007173;28;98243;-72
2022/12/03 05:26:23;;;;;;;41.83;24.73;;;;;;;;;;5006955;28;99728;-72
2022/12/03 05:28:49;;;;;;;43.80;22.00;;;;;;;;;;5004337;28;99991;-73
2022/12/03 05:31:16;;;;;;;41.97;22.63;;;;;;;;;;4999767;28;98289;-73
2022/12/03 05:33:42;;;;;;;41.65;25.33;;;;;;;;;;5004763;28;99644;-71
2022/12/03 05:36:09;;;;;;;41.47;23.90;;;;;;;;;;5010004;28;99829;-72
2022/12/03 05:38:36;;;;;;;38.90;20.17;;;;;;;;;;4992611;28;99625;-72
2022/12/03 05:42:52;;;;;;;44.22;23.50;;;;;;;;;;5007301;28;100057;-72
2022/12/03 05:43:49;;;;;;;41.30;23.70;;;;;;;;;;5005856;28;98269;-72
2022/12/03 05:46:16;;;;;;;24.92;14.90;;;;;;;;;;5007269;28;98697;-72
2022/12/03 05:48:42;;;;;;;38.50;21.45;;;;;;;;;;5004782;28;98860;-71
2022/12/03 05:51:09;;;;;;;35.70;20.33;;;;;;;;;;5003279;28;98401;-72
2022/12/03 05:53:35;;;;;;;32.05;17.65;;;;;;;;;;4999762;28;98902;-72
2022/12/03 05:56:01;;;;;;;40.70;25.48;;;;;;;;;;5005750;28;100487;-72
2022/12/03 05:58:28;;;;;;;34.42;21.02;;;;;;;;;;5009339;28;98273;-72
2022/12/03 06:00:54;;;;;;;50.20;25.98;;;;;;;;;;5007431;28;99151;-72
2022/12/03 06:03:20;;;;;;;47.50;23.70;;;;;;;;;;5005755;28;99002;-72
2022/12/03 06:05:47;;;;;;;44.80;23.98;;;;;;;;;;5004971;28;99722;-72
2022/12/03 06:08:13;;;;;;;33.53;20.33;;;;;;;;;;5000974;28;99035;-72
2022/12/03 06:10:40;;;;;;;31.08;20.38;;;;;;;;;;5003784;28;98824;-72
2022/12/03 06:13:06;;;;;;;31.80;19.60;;;;;;;;;;5002224;28;99207;-72
2022/12/03 06:15:32;;;;;;;39.97;25.48;;;;;;;;;;5004091;28;99402;-72
2022/12/03 06:18:05;;;;;;;;;;;;;;;;;;5010304;28;98445;-72
2022/12/03 06:20:31;;;;;;;29.38;17.95;;;;;;;;;;5004843;28;129477;-72
2022/12/03 06:22:58;;;;;;;38.17;23.33;;;;;;;;;;5000853;28;99523;-72
2022/12/03 06:25:24;;;;;;;38.80;22.23;;;;;;;;;;5005232;28;99607;-72
2022/12/03 06:27:50;;;;;;;43.97;25.60;;;;;;;;;;5005970;28;99980;-72
2022/12/03 06:30:17;;;;;;;39.15;22.30;;;;;;;;;;5005174;28;98283;-72
2022/12/03 06:32:43;;;;;;;41.60;24.13;;;;;;;;;;5006552;28;98583;-72
2022/12/03 06:35:10;;;;;;;39.22;24.17;;;;;;;;;;5005050;28;100263;-72
2022/12/03 06:37:36;;;;;;;26.50;17.85;;;;;;;;;;5003093;28;98347;-72
2022/12/03 06:40:03;;;;;;;31.20;16.67;;;;;;;;;;5009106;28;98614;-72
2022/12/03 06:42:29;;;;;;;33.83;21.15;;;;;;;;;;5005268;28;99085;-72
2022/12/03 06:44:55;;;;;;;30.90;19.25;;;;;;;;;;5005104;28;99682;-71
2022/12/03 06:47:22;;;;;;;43.03;24.45;;;;;;;;;;5006222;28;100161;-72
2022/12/03 06:49:48;;;;;;;35.63;21.92;;;;;;;;;;5004513;28;98266;-71
2022/12/03 06:52:15;;;;;;;29.58;17.42;;;;;;;;;;5003405;28;100101;-71
2022/12/03 06:54:41;;;;;;;26.95;17.10;;;;;;;;;;4999892;28;100188;-71
2022/12/03 06:57:08;;;;;;;36.90;21.33;;;;;;;;;;5006354;28;98330;-71
2022/12/03 06:59:36;;;;;;;34.20;22.80;;;;;;;;;;5004954;28;99703;-71
2022/12/03 07:02:03;;;;;;;34.80;20.95;;;;;;;;;;5006796;28;100122;-71
2022/12/03 07:04:29;;;;;;;30.75;18.20;;;;;;;;;;5004197;28;98522;-71
2022/12/03 07:06:55;;;;;;;34.25;21.00;;;;;;;;;;4996114;28;100196;-72
2022/12/03 07:09:22;;;;;;;30.40;20.52;;;;;;;;;;5004915;28;99633;-71
2022/12/03 07:11:48;;;;;;;25.75;16.33;;;;;;;;;;5003358;28;99994;-72
2022/12/03 07:14:14;;;;;;;28.02;17.17;;;;;;;;;;5005138;28;100245;-72
2022/12/03 07:16:42;;;;;;;34.13;21.63;;;;;;;;;;5005684;28;98308;-72
2022/12/03 07:19:09;;;;;;;31.10;21.33;;;;;;;;;;5005452;28;99445;-71
2022/12/03 07:21:35;;;;;;;42.53;21.40;;;;;;;;;;5001659;28;99154;-72
2022/12/03 07:24:02;;;;;;;31.02;20.20;;;;;;;;;;5007862;28;99063;-72
2022/12/03 07:26:28;;;;;;;33.03;20.83;;;;;;;;;;5002309;28;99160;-73
2022/12/03 07:28:55;;;;;;;32.30;20.02;;;;;;;;;;5005883;28;98302;-72
2022/12/03 07:31:21;;;;;;;19.98;14.07;;;;;;;;;;4999034;28;99643;-72
2022/12/03 07:33:48;;;;;;;29.17;18.92;;;;;;;;;;5004067;28;100396;-72
2022/12/03 07:36:14;;;;;;;31.70;21.20;;;;;;;;;;5005736;28;98306;-72
2022/12/03 07:38:40;;;;;;;28.15;16.77;;;;;;;;;;5004198;28;98735;-72
2022/12/03 07:41:07;;;;;;;26.20;17.13;;;;;;;;;;5005498;28;99929;-72
2022/12/03 07:43:33;;;;;;;26.30;18.10;;;;;;;;;;5004388;28;98600;-72
2022/12/03 07:45:59;;;;;;;33.95;19.08;;;;;;;;;;5009247;28;98550;-72
2022/12/03 07:48:25;;;;;;;29.60;19.45;;;;;;;;;;5000429;28;98391;-72
2022/12/03 07:50:52;;;;;;;31.23;16.42;;;;;;;;;;5005024;28;98492;-72
2022/12/03 07:53:18;;;;;;;34.05;19.58;;;;;;;;;;4999164;28;99631;-72
2022/12/03 07:55:44;;;;;;;32.90;19.90;;;;;;;;;;5003115;28;100422;-72
2022/12/03 07:58:11;;;;;;;39.33;22.23;;;;;;;;;;5005337;28;99662;-72
2022/12/03 08:00:37;;;;;;;34.22;21.67;;;;;;;;;;5001356;28;100247;-72
2022/12/03 08:03:04;;;;;;;26.90;13.77;;;;;;;;;;5005798;28;98323;-72
2022/12/03 08:05:30;;;;;;;24.50;15.13;;;;;;;;;;5006364;28;99382;-71
2022/12/03 08:07:56;;;;;;;32.70;19.25;;;;;;;;;;4992598;28;100146;-72
2022/12/03 08:10:24;;;;;;;37.03;21.67;;;;;;;;;;5006011;28;99900;-72
2022/12/03 08:12:50;;;;;;;33.50;20.80;;;;;;;;;;5005764;28;100465;-73
2022/12/03 08:15:18;;;;;;;38.78;19.63;;;;;;;;;;5002680;28;99296;-73
2022/12/03 08:17:46;;;;;;;39.28;23.23;;;;;;;;;;5005396;28;98540;-72
2022/12/03 08:20:14;;;;;;;40.35;21.30;;;;;;;;;;5004667;28;99172;-72
2022/12/03 08:22:42;;;;;;;36.80;20.75;;;;;;;;;;5004705;28;98331;-72
2022/12/03 08:25:28;;;;;;;36.60;21.52;;;;;;;;;;5003959;28;99419;-73
2022/12/03 08:28:21;;;;;;;41.10;23.15;;;;;;;;;;5006917;28;100235;-74
2022/12/03 08:31:11;;;;;;;45.22;18.23;;;;;;;;;;5002264;28;100238;-74
2022/12/03 08:33:38;;;;;;;38.05;21.65;;;;;;;;;;5007939;28;99964;-74
2022/12/03 08:36:09;;;;;;;40.95;22.05;;;;;;;;;;5008433;28;98576;-74
2022/12/03 08:38:36;;;;;;;37.47;20.80;;;;;;;;;;5009085;28;99409;-74
2022/12/03 08:41:06;;;;;;;35.22;19.58;;;;;;;;;;5003693;28;99970;-73
2022/12/03 08:43:35;;;;;;;28.85;14.98;;;;;;;;;;4996799;28;98548;-73
2022/12/03 08:46:02;;;;;;;38.00;22.58;;;;;;;;;;5007905;28;98456;-73
2022/12/03 08:48:31;;;;;;;40.25;21.25;;;;;;;;;;5002746;28;99955;-72
2022/12/03 08:51:00;;;;;;;47.03;25.67;;;;;;;;;;5004273;28;98857;-73
2022/12/03 08:53:30;;;;;;;40.70;23.58;;;;;;;;;;5007867;28;100063;-73
2022/12/03 08:56:16;;;;;;;34.20;18.90;;;;;;;;;;5007608;28;98553;-73
2022/12/03 08:58:44;;;;;;;42.25;22.17;;;;;;;;;;4989813;28;101251;-73
2022/12/03 09:01:11;;;;;;;38.40;22.83;;;;;;;;;;5009516;28;100226;-73
2022/12/03 09:03:38;;;;;;;43.05;26.55;;;;;;;;;;5006595;28;98828;-73
2022/12/03 09:06:04;;;;;;;41.42;23.63;;;;;;;;;;5008432;28;99384;-72
2022/12/03 09:08:31;;;;;;;49.25;25.48;;;;;;;;;;5008428;28;98938;-72
2022/12/03 09:10:57;;;;;;;37.83;20.10;;;;;;;;;;5008288;28;98972;-72
2022/12/03 09:13:23;;;;;;;41.70;24.02;;;;;;;;;;5006776;28;99809;-73
2022/12/03 09:15:50;;;;;;;38.35;18.80;;;;;;;;;;4999034;28;98970;-72
2022/12/03 09:18:16;;;;;;;42.97;23.40;;;;;;;;;;4996126;28;98536;-73
2022/12/03 09:20:42;;;;;;;37.83;22.27;;;;;;;;;;5006751;28;99578;-73
2022/12/03 09:23:09;;;;;;;39.40;18.17;;;;;;;;;;5005870;28;98826;-73
2022/12/03 09:25:35;;;;;;;40.33;23.33;;;;;;;;;;5007111;28;99486;-73
2022/12/03 09:28:03;;;;;;;45.25;25.52;;;;;;;;;;4996671;28;99345;-73
2022/12/03 09:30:30;;;;;;;36.20;18.80;;;;;;;;;;5006461;28;98338;-73
2022/12/03 09:32:56;;;;;;;34.25;19.90;;;;;;;;;;5005912;28;101711;-73
2022/12/03 09:35:24;;;;;;;41.38;24.02;;;;;;;;;;5011528;28;100105;-73
2022/12/03 09:37:51;;;;;;;37.00;21.02;;;;;;;;;;5006165;28;99788;-73
2022/12/03 09:40:18;;;;;;;31.60;20.92;;;;;;;;;;5002635;28;100381;-73
2022/12/03 09:42:44;;;;;;;32.10;18.67;;;;;;;;;;5003462;28;98366;-73
2022/12/03 09:45:13;;;;;;;37.03;20.92;;;;;;;;;;5006715;28;99620;-73
2022/12/03 09:47:42;;;;;;;26.73;15.57;;;;;;;;;;5004658;28;100012;-73
2022/12/03 09:50:11;;;;;;;38.20;19.08;;;;;;;;;;5007976;28;98262;-72
2022/12/03 09:52:38;;;;;;;46.38;21.67;;;;;;;;;;5007937;28;99564;-73
2022/12/03 09:55:10;;;;;;;34.85;17.65;;;;;;;;;;5005957;28;99923;-73
2022/12/03 09:57:36;;;;;;;43.55;18.95;;;;;;;;;;5011153;28;98114;-73
2022/12/03 10:00:06;;;;;;;22.88;12.60;;;;;;;;;;5006397;28;99874;-73
2022/12/03 10:02:38;;;;;;;39.45;20.23;;;;;;;;;;5004363;28;98543;-73
2022/12/03 10:05:04;;;;;;;40.53;18.75;;;;;;;;;;5005955;28;99509;-73
2022/12/03 10:07:30;;;;;;;27.35;14.93;;;;;;;;;;5006686;28;100189;-74
2022/12/03 10:09:57;;;;;;;30.50;17.58;;;;;;;;;;5003620;28;98317;-72
2022/12/03 10:12:24;;;;;;;33.00;17.13;;;;;;;;;;5005769;28;99975;-73
2022/12/03 10:14:50;;;;;;;51.97;23.15;;;;;;;;;;5006552;28;99943;-73
2022/12/03 10:17:18;;;;;;;34.28;19.30;;;;;;;;;;5009892;28;98698;-72
2022/12/03 10:19:44;;;;;;;40.17;18.08;;;;;;;;;;5002606;28;100415;-73
2022/12/03 10:22:10;;;;;;;28.15;15.88;;;;;;;;;;5007232;28;98227;-72
2022/12/03 10:24:37;;;;;;;48.63;21.08;;;;;;;;;;4994873;28;99811;-72
2022/12/03 10:27:18;;;;;;;39.95;19.17;;;;;;;;;;4987374;28;100078;-73
2022/12/03 10:29:52;;;;;;;44.03;20.63;;;;;;;;;;4993248;28;98726;-72
2022/12/03 10:32:23;;;;;;;38.00;19.25;;;;;;;;;;5007421;28;99943;-73
2022/12/03 10:34:49;;;;;;;38.28;19.65;;;;;;;;;;5004369;28;99672;-73
2022/12/03 10:37:17;;;;;;;35.40;21.38;;;;;;;;;;5004975;28;98334;-73
2022/12/03 10:39:51;;;;;;;38.47;17.95;;;;;;;;;;5008153;28;100061;-73
2022/12/03 10:42:22;;;;;;;29.48;16.58;;;;;;;;;;5005690;28;98219;-72
2022/12/03 10:44:52;;;;;;;36.03;18.25;;;;;;;;;;5007238;28;99653;-73
2022/12/03 10:47:21;;;;;;;36.05;15.45;;;;;;;;;;5007163;28;98101;-73
2022/12/03 10:49:59;;;;;;;41.53;20.27;;;;;;;;;;5005121;28;98286;-73
2022/12/03 10:52:26;;;;;;;44.42;21.05;;;;;;;;;;4999889;28;99525;-73
2022/12/03 10:54:52;;;;;;;40.00;20.42;;;;;;;;;;5006202;28;100203;-74
2022/12/03 10:57:19;;;;;;;27.90;14.80;;;;;;;;;;5004959;28;98346;-73
2022/12/03 10:59:45;;;;;;;44.08;22.35;;;;;;;;;;5005082;28;98574;-72
2022/12/03 11:02:19;;;;;;;42.67;19.75;;;;;;;;;;5008611;28;100394;-73
2022/12/03 11:04:46;;;;;;;29.70;16.80;;;;;;;;;;4997576;28;99588;-73
2022/12/03 11:07:19;;;;;;;43.88;21.17;;;;;;;;;;5001050;28;100153;-73
2022/12/03 11:09:47;;;;;;;36.92;18.50;;;;;;;;;;5006299;28;98219;-73
2022/12/03 11:12:21;;;;;;;44.83;23.40;;;;;;;;;;5004439;28;99455;-73
2022/12/03 11:14:47;;;;;;;33.35;19.58;;;;;;;;;;5005577;28;99405;-73
2022/12/03 11:17:33;;;;;;;37.88;20.23;;;;;;;;;;5005575;28;99991;-73
2022/12/03 11:20:00;;;;;;;37.42;19.48;;;;;;;;;;4985803;28;98754;-73
2022/12/03 11:22:40;;;;;;;30.55;17.17;;;;;;;;;;5003199;28;100057;-72
2022/12/03 11:25:28;;;;;;;37.88;19.58;;;;;;;;;;5004683;28;98410;-73
2022/12/03 11:28:12;;;;;;;43.65;22.83;;;;;;;;;;5003865;28;99816;-71
2022/12/03 11:30:48;;;;;;;26.33;16.63;;;;;;;;;;5005455;28;98290;-71
2022/12/03 11:33:22;;;;;;;29.92;17.27;;;;;;;;;;5005447;28;98508;-72
2022/12/03 11:35:49;;;;;;;;;;;;;;;;;;4992845;28;99819;-72
2022/12/03 11:38:34;;;;;;;27.60;15.82;;;;;;;;;;5003906;28;122889;-72
2022/12/03 11:41:09;;;;;;;31.48;18.08;;;;;;;;;;4999734;28;98740;-73
2022/12/03 11:43:48;;;;;;;18.02;12.15;;;;;;;;;;5004884;28;100069;-73
2022/12/03 11:46:14;;;;;;;31.10;16.60;;;;;;;;;;4999517;28;98556;-72
2022/12/03 11:48:44;;;;;;;22.80;12.02;;;;;;;;;;5008202;28;99538;-73
2022/12/03 11:51:15;;;;;;;16.13;10.15;;;;;;;;;;5002436;28;98488;-75
2022/12/03 11:53:42;;;;;;;32.13;16.95;;;;;;;;;;5002471;28;99395;-74
2022/12/03 11:56:14;;;;;;;36.22;19.67;;;;;;;;;;4994444;28;99914;-73
2022/12/03 11:58:41;;;;;;;31.53;16.67;;;;;;;;;;4994253;28;98323;-73
2022/12/03 12:01:08;;;;;;;27.40;15.75;;;;;;;;;;5005506;28;98831;-73
2022/12/03 12:03:40;;;;;;;28.27;13.70;;;;;;;;;;5007758;28;99149;-71
2022/12/03 12:06:07;;;;;;;14.07;9.70;;;;;;;;;;5006829;28;98269;-72
2022/12/03 12:08:35;;;;;;;24.35;14.57;;;;;;;;;;4997386;28;98749;-72
2022/12/03 12:11:02;;;;;;;23.08;15.52;;;;;;;;;;4991783;28;100165;-72
2022/12/03 12:13:32;;;;;;;31.00;16.25;;;;;;;;;;4997541;28;98689;-72
2022/12/03 12:16:04;;;;;;;29.25;16.13;;;;;;;;;;4998409;28;100031;-72
2022/12/03 12:18:43;;;;;;;32.42;15.52;;;;;;;;;;5001498;28;98355;-71
2022/12/03 12:21:28;;;;;;;30.08;13.90;;;;;;;;;;5005354;28;99410;-72
2022/12/03 12:23:54;;;;;;;34.42;17.55;;;;;;;;;;5004599;28;99446;-72
2022/12/03 12:26:21;;;;;;;32.60;16.33;;;;;;;;;;5008743;28;98292;-72
2022/12/03 12:28:47;;;;;;;25.42;15.40;;;;;;;;;;5006453;28;99491;-72
2022/12/03 12:31:14;;;;;;;39.65;18.48;;;;;;;;;;5009143;28;99167;-72
2022/12/03 12:33:40;;;;;;;23.50;13.65;;;;;;;;;;5001133;28;99355;-72
2022/12/03 12:36:07;;;;;;;16.65;11.40;;;;;;;;;;4996148;28;100034;-72
2022/12/03 12:38:34;;;;;;;32.65;15.55;;;;;;;;;;4988860;28;98194;-72
2022/12/03 12:41:03;;;;;;;39.97;19.90;;;;;;;;;;4989529;28;99501;-72
2022/12/03 12:43:31;;;;;;;31.17;17.52;;;;;;;;;;5002949;28;100207;-72
2022/12/03 12:46:06;;;;;;;39.20;17.38;;;;;;;;;;5006116;28;99737;-72
2022/12/03 12:48:53;;;;;;;42.13;20.52;;;;;;;;;;5006025;28;99273;-71
2022/12/03 12:51:25;;;;;;;37.30;17.47;;;;;;;;;;5006837;28;100229;-72
2022/12/03 12:53:52;;;;;;;41.10;21.08;;;;;;;;;;5012958;28;98316;-72
2022/12/03 12:56:25;;;;;;;29.98;13.90;;;;;;;;;;5005139;28;100141;-72
2022/12/03 12:58:52;;;;;;;46.13;22.58;;;;;;;;;;5007830;28;98350;-74
2022/12/03 13:01:20;;;;;;;49.78;20.55;;;;;;;;;;5007251;28;98785;-73
2022/12/03 13:03:48;;;;;;;30.38;15.27;;;;;;;;;;5004402;28;99946;-73
2022/12/03 13:06:15;;;;;;;44.28;23.30;;;;;;;;;;5002950;28;99476;-73
2022/12/03 13:08:43;;;;;;;36.40;17.38;;;;;;;;;;5007545;28;99799;-72
2022/12/03 13:11:29;;;;;;;54.38;23.52;;;;;;;;;;5006178;28;100060;-73
2022/12/03 13:13:56;;;;;;;49.88;20.30;;;;;;;;;;4988713;28;98362;-72
2022/12/03 13:16:32;;;;;;;61.13;25.25;;;;;;;;;;5002582;28;99668;-72
2022/12/03 13:18:59;;;;;;;46.95;22.58;;;;;;;;;;4988551;28;98385;-73
2022/12/03 13:21:35;;;;;;;48.10;21.35;;;;;;;;;;5003458;28;99412;-73
2022/12/03 13:24:01;;;;;;;37.67;17.95;;;;;;;;;;4997920;28;100098;-73
2022/12/03 13:26:34;;;;;;;57.47;24.13;;;;;;;;;;4986610;28;98745;-74
2022/12/03 13:29:06;;;;;;;52.75;24.05;;;;;;;;;;4995493;28;98681;-74
2022/12/03 13:31:33;;;;;;;67.78;28.70;;;;;;;;;;5007096;28;100250;-73
2022/12/03 13:34:11;;;;;;;64.18;28.58;;;;;;;;;;5008150;28;98256;-73
2022/12/03 13:36:40;;;;;;;37.78;15.48;;;;;;;;;;5000835;28;98528;-73
2022/12/03 13:39:13;;;;;;;66.43;27.58;;;;;;;;;;4998308;28;100035;-74
2022/12/03 13:44:28;;;;;;;67.68;27.35;;;;;;;;;;5007281;28;100155;-73
2022/12/03 13:46:54;;;;;;;61.45;26.27;;;;;;;;;;5006325;28;98329;-73
2022/12/03 13:49:22;;;;;;;54.65;25.95;;;;;;;;;;5005330;28;100319;-73
2022/12/03 13:51:49;;;;;;;45.75;21.13;;;;;;;;;;5003872;28;100197;-74
2022/12/03 13:54:20;;;;;;;36.63;19.17;;;;;;;;;;5003565;28;98319;-74
2022/12/03 13:56:46;;;;;;;54.55;24.00;;;;;;;;;;5006645;28;99154;-73
2022/12/03 13:59:13;;;;;;;42.13;20.27;;;;;;;;;;5007952;28;100222;-73
2022/12/03 14:01:39;;;;;;;40.78;19.15;;;;;;;;;;5010496;28;98801;-73
2022/12/03 14:04:06;;;;;;;48.80;23.77;;;;;;;;;;5006672;28;98969;-74
2022/12/03 14:06:32;;;;;;;52.40;20.75;;;;;;;;;;5004429;28;98419;-73
2022/12/03 14:08:58;;;;;;;38.10;20.15;;;;;;;;;;5005768;28;99063;-74
2022/12/03 14:14:10;;;;;;;28.42;14.38;;;;;;;;;;5003490;28;99057;-73
2022/12/03 14:16:36;;;;;;;49.45;22.35;;;;;;;;;;5005915;28;99350;-73
2022/12/03 14:19:03;;;;;;;57.05;27.60;;;;;;;;;;5006037;28;100262;-75
2022/12/03 14:21:29;;;;;;;39.40;18.65;;;;;;;;;;5000985;28;98406;-72
2022/12/03 14:23:55;;;;;;;29.65;15.35;;;;;;;;;;5002253;28;100397;-73
2022/12/03 14:26:22;;;;;;;36.83;20.02;;;;;;;;;;5004926;28;98287;-73
2022/12/03 14:28:48;;;;;;;49.13;21.92;;;;;;;;;;5006936;28;99387;-73
2022/12/03 14:31:14;;;;;;;46.15;23.42;;;;;;;;;;4999700;28;99876;-73
2022/12/03 14:33:41;;;;;;;42.60;21.27;;;;;;;;;;4986440;28;98309;-71
2022/12/03 14:36:07;;;;;;;42.28;21.67;;;;;;;;;;5003974;28;99782;-73
2022/12/03 14:38:33;;;;;;;46.35;20.50;;;;;;;;;;5005364;28;99062;-73
2022/12/03 14:41:00;;;;;;;37.28;19.65;;;;;;;;;;5006464;28;98297;-72
2022/12/03 14:43:26;;;;;;;31.60;16.75;;;;;;;;;;5006336;28;100639;-73